createdAt,value
2023-03-03T00:01:33.629Z,103.07
2023-03-03T00:04:02.344Z,117.90
2023-03-03T00:06:31.194Z,91.93
2023-03-03T00:08:59.935Z,51.00
2023-03-03T00:11:29.382Z,40.17
2023-03-03T00:13:58.569Z,30.50
2023-03-03T00:16:31.095Z,21.63
2023-03-03T00:19:00.185Z,14.13
2023-03-03T00:21:30.848Z,15.90
2023-03-03T00:24:18.697Z,14.07
2023-03-03T00:26:48.442Z,12.93
2023-03-03T00:29:37.897Z,10.37
2023-03-03T00:32:20.231Z,12.80
2023-03-03T00:34:49.054Z,14.07
2023-03-03T00:37:27.977Z,10.23
2023-03-03T00:40:01.747Z,13.80
2023-03-03T00:42:30.414Z,11.60
2023-03-03T00:44:59.517Z,11.00
2023-03-03T00:47:32.737Z,13.27
2023-03-03T00:50:31.262Z,14.03
2023-03-03T00:53:06.535Z,11.70
2023-03-03T00:55:36.207Z,14.10
2023-03-03T00:58:05.029Z,9.43
2023-03-03T01:00:34.288Z,9.60
2023-03-03T01:03:07.170Z,11.10
2023-03-03T01:05:36.083Z,11.17
2023-03-03T01:08:04.953Z,12.93
2023-03-03T01:10:37.265Z,13.70
2023-03-03T01:13:07.579Z,14.97
2023-03-03T01:15:41.024Z,13.20
2023-03-03T01:18:11.489Z,12.00
2023-03-03T01:20:40.514Z,11.20
2023-03-03T01:23:08.984Z,14.00
2023-03-03T01:25:38.160Z,8.83
2023-03-03T01:28:06.725Z,11.97
2023-03-03T01:30:36.767Z,8.73
2023-03-03T01:33:06.287Z,10.37
2023-03-03T01:35:41.163Z,11.23
2023-03-03T01:38:09.762Z,8.90
2023-03-03T01:40:38.617Z,7.57
2023-03-03T01:43:07.146Z,9.77
2023-03-03T01:45:47.348Z,13.07
2023-03-03T01:52:27.733Z,13.70
2023-03-03T01:54:58.962Z,10.47
2023-03-03T01:57:31.027Z,10.27
2023-03-03T02:00:01.010Z,12.17
2023-03-03T02:02:30.808Z,11.30
2023-03-03T02:04:59.464Z,14.43
2023-03-03T02:07:30.770Z,14.83
2023-03-03T02:10:01.541Z,19.43
2023-03-03T02:12:34.106Z,13.87
2023-03-03T02:15:03.008Z,10.70
2023-03-03T02:17:32.863Z,12.43
2023-03-03T02:20:05.562Z,11.53
2023-03-03T02:22:40.655Z,9.50
2023-03-03T02:25:13.174Z,7.50
2023-03-03T02:27:43.100Z,9.00
2023-03-03T02:30:18.795Z,10.77
2023-03-03T02:32:47.736Z,8.70
2023-03-03T02:35:41.054Z,8.17
2023-03-03T02:38:16.756Z,8.90
2023-03-03T02:40:49.371Z,11.90
2023-03-03T02:43:22.854Z,11.70
2023-03-03T02:45:51.360Z,12.03
2023-03-03T02:48:19.978Z,14.33
2023-03-03T02:50:49.496Z,13.40
2023-03-03T02:53:19.389Z,11.63
2023-03-03T02:55:48.344Z,12.10
2023-03-03T02:58:17.202Z,10.57
2023-03-03T03:00:48.625Z,13.60
2023-03-03T03:03:16.991Z,15.67
2023-03-03T03:05:45.940Z,12.27
2023-03-03T03:08:16.053Z,15.47
2023-03-03T03:10:45.076Z,14.40
2023-03-03T03:13:13.806Z,15.10
2023-03-03T03:16:19.817Z,14.10
2023-03-03T03:18:48.400Z,20.30
2023-03-03T03:21:16.873Z,16.50
2023-03-03T03:23:55.115Z,13.50
2023-03-03T03:26:23.887Z,17.67
2023-03-03T03:28:52.863Z,21.07
2023-03-03T03:31:23.437Z,15.20
2023-03-03T03:33:52.925Z,20.00
2023-03-03T03:36:21.918Z,17.00
2023-03-03T03:38:50.531Z,18.37
2023-03-03T03:41:19.291Z,19.57
2023-03-03T03:43:47.852Z,19.97
2023-03-03T03:46:16.665Z,17.47
2023-03-03T03:48:47.283Z,19.40
2023-03-03T03:51:15.932Z,18.83
2023-03-03T03:53:44.681Z,16.07
2023-03-03T03:56:13.425Z,18.40
2023-03-03T03:58:42.684Z,17.57
2023-03-03T04:01:11.643Z,20.30
2023-03-03T04:03:40.178Z,20.53
2023-03-03T04:06:10.572Z,31.13
2023-03-03T04:08:38.903Z,19.60
2023-03-03T04:11:07.579Z,18.57
2023-03-03T04:13:36.383Z,21.07
2023-03-03T04:16:06.404Z,21.30
2023-03-03T04:18:36.232Z,19.20
2023-03-03T04:21:04.601Z,21.53
2023-03-03T04:23:34.751Z,20.47
2023-03-03T04:26:03.126Z,19.87
2023-03-03T04:28:31.531Z,22.87
2023-03-03T04:35:13.735Z,23.83
2023-03-03T04:37:42.507Z,17.43
2023-03-03T04:40:13.106Z,28.27
2023-03-03T04:42:41.780Z,20.60
2023-03-03T04:45:11.219Z,23.87
2023-03-03T04:47:41.240Z,24.67
2023-03-03T04:50:12.940Z,22.83
2023-03-03T04:52:41.401Z,20.23
2023-03-03T04:55:14.396Z,23.10
2023-03-03T04:57:42.983Z,20.83
2023-03-03T05:00:13.659Z,35.83
2023-03-03T05:02:42.404Z,28.60
2023-03-03T05:05:11.539Z,27.27
2023-03-03T05:07:41.126Z,26.67
2023-03-03T05:10:10.781Z,26.07
2023-03-03T05:12:40.587Z,31.33
2023-03-03T05:15:14.881Z,20.97
2023-03-03T05:17:43.489Z,17.60
2023-03-03T05:20:14.192Z,22.60
2023-03-03T05:22:42.966Z,22.47
2023-03-03T05:25:15.650Z,25.23
2023-03-03T05:27:47.926Z,27.37
2023-03-03T05:30:16.453Z,26.47
2023-03-03T05:32:44.940Z,22.37
2023-03-03T05:35:13.290Z,20.00
2023-03-03T05:37:46.982Z,30.57
2023-03-03T05:40:16.517Z,27.23
2023-03-03T05:42:49.691Z,25.50
2023-03-03T05:45:20.553Z,29.10
2023-03-03T05:47:49.373Z,23.97
2023-03-03T05:50:19.127Z,31.83
2023-03-03T05:52:49.742Z,24.97
2023-03-03T05:55:33.394Z,28.07
2023-03-03T05:58:03.694Z,41.03
2023-03-03T06:00:32.115Z,24.57
2023-03-03T06:03:00.664Z,38.47
2023-03-03T06:05:32.248Z,29.57
2023-03-03T06:08:01.045Z,26.00
2023-03-03T06:10:31.820Z,23.80
2023-03-03T06:13:01.205Z,26.90
2023-03-03T06:15:31.504Z,22.17
2023-03-03T06:18:00.389Z,24.70
2023-03-03T06:20:29.370Z,30.73
2023-03-03T06:22:58.143Z,25.40
2023-03-03T06:25:26.892Z,24.77
2023-03-03T06:27:57.420Z,18.00
2023-03-03T06:30:27.312Z,21.90
2023-03-03T06:32:57.527Z,23.10
2023-03-03T06:35:25.917Z,26.97
2023-03-03T06:37:54.701Z,29.00
2023-03-03T06:40:23.211Z,24.97
2023-03-03T06:42:51.872Z,26.57
2023-03-03T06:45:21.087Z,24.37
2023-03-03T06:47:49.772Z,20.97
2023-03-03T06:50:20.634Z,19.43
2023-03-03T06:52:52.088Z,23.27
2023-03-03T06:55:24.463Z,23.43
2023-03-03T06:57:56.102Z,23.87
2023-03-03T07:00:31.078Z,27.77
2023-03-03T07:03:04.138Z,30.80
2023-03-03T07:05:34.619Z,25.70
2023-03-03T07:08:03.151Z,24.20
2023-03-03T07:10:33.365Z,24.13
2023-03-03T07:13:18.377Z,28.63
2023-03-03T07:15:47.287Z,25.03
2023-03-03T07:18:27.092Z,23.20
2023-03-03T07:20:57.432Z,21.40
2023-03-03T07:23:27.724Z,18.80
2023-03-03T07:25:56.901Z,23.37
2023-03-03T07:28:29.791Z,20.73
2023-03-03T07:30:59.830Z,19.07
2023-03-03T07:33:31.342Z,18.50
2023-03-03T07:36:05.255Z,22.93
2023-03-03T07:38:37.190Z,23.17
2023-03-03T07:41:07.885Z,20.13
2023-03-03T07:43:37.659Z,24.07
2023-03-03T07:46:28.121Z,21.10
2023-03-03T07:48:57.991Z,21.70
2023-03-03T07:51:31.994Z,24.87
2023-03-03T07:54:29.288Z,19.10
2023-03-03T07:56:59.514Z,22.23
2023-03-03T07:59:28.529Z,20.33
2023-03-03T08:01:58.532Z,24.33
2023-03-03T08:04:30.827Z,20.63
2023-03-03T08:07:02.601Z,17.23
2023-03-03T08:09:47.582Z,19.43
2023-03-03T08:12:39.445Z,24.03
2023-03-03T08:15:19.891Z,18.70
2023-03-03T08:17:49.021Z,21.67
2023-03-03T08:20:49.143Z,20.83
2023-03-03T08:23:20.402Z,30.63
2023-03-03T08:25:50.527Z,29.70
2023-03-03T08:28:20.129Z,30.67
2023-03-03T08:30:49.458Z,20.87
2023-03-03T08:33:18.588Z,20.43
2023-03-03T08:35:47.667Z,23.40
2023-03-03T08:38:19.709Z,23.40
2023-03-03T08:40:48.900Z,25.20
2023-03-03T08:43:21.849Z,24.23
2023-03-03T08:45:52.615Z,22.40
2023-03-03T08:48:21.983Z,22.90
2023-03-03T08:51:00.744Z,28.47
2023-03-03T08:53:34.080Z,24.90
2023-03-03T08:56:05.088Z,24.53
2023-03-03T08:58:35.870Z,31.73
2023-03-03T09:01:05.362Z,27.17
2023-03-03T09:03:34.116Z,25.23
2023-03-03T09:06:02.686Z,25.50
2023-03-03T09:08:32.796Z,25.47
2023-03-03T09:11:31.008Z,29.80
2023-03-03T09:14:04.766Z,28.77
2023-03-03T09:16:38.358Z,32.97
2023-03-03T09:19:18.382Z,29.20
2023-03-03T09:21:47.079Z,31.00
2023-03-03T09:24:26.174Z,27.53
2023-03-03T09:26:55.085Z,23.97
2023-03-03T09:29:29.411Z,30.17
2023-03-03T09:31:59.330Z,27.37
2023-03-03T09:34:36.995Z,31.83
2023-03-03T09:37:21.668Z,34.70
2023-03-03T09:39:52.787Z,30.10
2023-03-03T09:42:57.189Z,28.00
2023-03-03T09:45:42.980Z,29.63
2023-03-03T09:48:41.798Z,31.03
2023-03-03T09:51:21.227Z,36.87
2023-03-03T09:53:58.938Z,31.90
2023-03-03T09:56:34.360Z,33.10
2023-03-03T09:59:11.950Z,34.33
2023-03-03T10:01:49.327Z,29.60
2023-03-03T10:04:43.030Z,29.27
2023-03-03T10:07:26.281Z,30.23
2023-03-03T10:10:11.417Z,24.23
2023-03-03T10:12:46.462Z,29.37
2023-03-03T10:15:23.333Z,28.30
2023-03-03T10:18:05.778Z,27.70
2023-03-03T10:20:53.479Z,29.53
2023-03-03T10:23:26.461Z,38.23
2023-03-03T10:25:58.821Z,29.27
2023-03-03T10:29:05.416Z,27.23
2023-03-03T10:31:42.894Z,28.00
2023-03-03T10:34:23.625Z,26.53
2023-03-03T10:36:58.888Z,30.70
2023-03-03T10:39:39.980Z,26.33
2023-03-03T10:42:27.726Z,26.80
2023-03-03T10:45:05.634Z,24.37
2023-03-03T10:48:00.395Z,23.13
2023-03-03T10:50:34.252Z,28.10
2023-03-03T10:53:19.808Z,28.23
2023-03-03T10:55:57.797Z,26.83
2023-03-03T10:58:48.454Z,25.20
2023-03-03T11:01:26.003Z,28.80
2023-03-03T11:04:22.609Z,24.03
2023-03-03T11:06:54.589Z,22.00
2023-03-03T11:09:36.420Z,26.43
2023-03-03T11:12:16.945Z,24.30
2023-03-03T11:14:49.589Z,36.23
2023-03-03T11:17:24.088Z,28.80
2023-03-03T11:20:01.281Z,31.07
2023-03-03T11:22:36.398Z,28.67
2023-03-03T11:25:15.636Z,23.30
2023-03-03T11:28:13.942Z,27.67
2023-03-03T11:30:53.032Z,21.47
2023-03-03T11:33:31.542Z,23.43
2023-03-03T11:36:13.239Z,33.50
2023-03-03T11:38:53.550Z,32.93
2023-03-03T11:41:37.843Z,26.50
2023-03-03T11:44:20.689Z,32.40
2023-03-03T11:46:53.981Z,27.90
2023-03-03T11:49:28.147Z,27.27
2023-03-03T11:52:05.737Z,29.33
2023-03-03T11:54:39.095Z,29.20
2023-03-03T11:57:18.056Z,31.40
2023-03-03T11:59:52.364Z,27.00
2023-03-03T12:02:57.373Z,28.20
2023-03-03T12:05:42.940Z,35.20
2023-03-03T12:08:24.610Z,21.67
2023-03-03T12:10:59.830Z,32.90
2023-03-03T12:13:32.413Z,25.43
2023-03-03T12:16:06.683Z,28.33
2023-03-03T12:18:54.169Z,29.13
2023-03-03T12:21:45.308Z,24.20
2023-03-03T12:24:23.529Z,27.73
2023-03-03T12:26:57.375Z,30.33
2023-03-03T12:29:35.335Z,27.60
2023-03-03T12:32:15.396Z,23.50
2023-03-03T12:34:48.297Z,31.00
2023-03-03T12:37:32.392Z,26.03
2023-03-03T12:40:10.477Z,21.60
2023-03-03T12:42:55.178Z,23.87
2023-03-03T12:45:35.361Z,24.80
2023-03-03T12:48:10.383Z,24.17
2023-03-03T12:50:48.468Z,20.30
2023-03-03T12:53:29.937Z,28.20
2023-03-03T12:56:01.683Z,27.83
2023-03-03T12:58:45.179Z,26.97
2023-03-03T13:01:23.650Z,26.27
2023-03-03T13:03:59.614Z,21.70
2023-03-03T13:06:31.066Z,26.13
2023-03-03T13:09:32.959Z,23.50
2023-03-03T13:12:34.501Z,19.40
2023-03-03T13:15:12.506Z,29.50
2023-03-03T13:17:49.454Z,24.70
2023-03-03T13:20:24.493Z,24.27
2023-03-03T13:22:57.346Z,23.63
2023-03-03T13:25:40.579Z,25.37
2023-03-03T13:28:15.160Z,26.13
2023-03-03T13:30:49.945Z,23.93
2023-03-03T13:33:24.006Z,24.43
2023-03-03T13:35:58.716Z,23.60
2023-03-03T13:38:29.745Z,19.70
2023-03-03T13:41:07.191Z,20.87
2023-03-03T13:43:45.043Z,28.40
2023-03-03T13:46:17.838Z,23.80
2023-03-03T13:49:07.729Z,23.80
2023-03-03T13:51:44.004Z,28.37
2023-03-03T13:54:20.746Z,22.43
2023-03-03T13:57:20.341Z,22.60
2023-03-03T13:59:54.749Z,23.60
2023-03-03T14:02:46.334Z,32.03
2023-03-03T14:05:17.922Z,29.10
2023-03-03T14:07:51.689Z,31.30
2023-03-03T14:10:23.782Z,29.90
2023-03-03T14:12:59.544Z,23.47
2023-03-03T14:15:31.113Z,27.70
2023-03-03T14:18:20.491Z,22.60
2023-03-03T14:20:51.716Z,25.00
2023-03-03T14:23:23.080Z,22.53
2023-03-03T14:26:03.166Z,20.13
2023-03-03T14:28:40.439Z,21.80
2023-03-03T14:31:18.948Z,28.60
2023-03-03T14:33:57.864Z,29.50
2023-03-03T14:36:32.066Z,27.67
2023-03-03T14:39:01.141Z,25.80
2023-03-03T14:41:41.603Z,33.93
2023-03-03T14:44:30.172Z,30.73
2023-03-03T14:47:21.902Z,22.67
2023-03-03T14:49:51.339Z,22.60
2023-03-03T14:52:33.074Z,26.07
2023-03-03T14:55:05.442Z,28.60
2023-03-03T14:57:46.751Z,28.27
2023-03-03T15:00:36.954Z,22.00
2023-03-03T15:03:20.281Z,22.30
2023-03-03T15:05:53.219Z,23.90
2023-03-03T15:08:29.882Z,23.43
2023-03-03T15:11:15.824Z,28.13
2023-03-03T15:13:46.699Z,25.93
2023-03-03T15:16:21.090Z,28.90
2023-03-03T15:19:19.532Z,29.63
2023-03-03T15:21:56.661Z,29.97
2023-03-03T15:24:29.122Z,26.97
2023-03-03T15:27:04.790Z,28.23
2023-03-03T15:29:39.529Z,27.33
2023-03-03T15:32:14.763Z,28.90
2023-03-03T15:34:46.265Z,29.53
2023-03-03T15:37:30.073Z,32.53
2023-03-03T15:40:06.872Z,35.07
2023-03-03T15:42:39.799Z,34.20
2023-03-03T15:45:15.910Z,39.70
2023-03-03T15:48:29.710Z,34.97
2023-03-03T15:51:08.313Z,24.20
2023-03-03T15:53:57.443Z,35.37
2023-03-03T15:56:31.214Z,22.43
2023-03-03T15:59:32.610Z,24.23
2023-03-03T16:02:14.617Z,21.03
2023-03-03T16:04:53.338Z,19.03
2023-03-03T16:07:33.550Z,19.43
2023-03-03T16:10:12.464Z,30.50
2023-03-03T16:12:49.481Z,26.57
2023-03-03T16:15:27.910Z,20.23
2023-03-03T16:18:01.949Z,18.93
2023-03-03T16:20:32.321Z,20.30
2023-03-03T16:23:22.684Z,17.33
2023-03-03T16:26:11.342Z,18.63
2023-03-03T16:29:03.934Z,28.23
2023-03-03T16:31:36.850Z,18.63
2023-03-03T16:34:13.624Z,27.13
2023-03-03T16:36:54.001Z,18.40
2023-03-03T16:39:30.216Z,21.07
2023-03-03T16:42:03.569Z,23.90
2023-03-03T16:44:41.912Z,18.30
2023-03-03T16:47:20.873Z,21.90
2023-03-03T16:49:54.754Z,15.73
2023-03-03T16:52:27.766Z,20.27
2023-03-03T16:54:59.722Z,15.13
2023-03-03T16:57:34.741Z,20.13
2023-03-03T17:00:07.469Z,27.83
2023-03-03T17:03:15.948Z,16.97
2023-03-03T17:05:49.994Z,20.87
2023-03-03T17:08:43.344Z,14.73
2023-03-03T17:11:21.049Z,17.77
2023-03-03T17:14:00.402Z,15.53
2023-03-03T17:16:49.826Z,19.47
2023-03-03T17:19:34.493Z,15.97
2023-03-03T17:22:14.805Z,20.50
2023-03-03T17:24:50.349Z,20.00
2023-03-03T17:27:27.411Z,20.97
2023-03-03T17:30:07.302Z,20.80
2023-03-03T17:32:55.182Z,16.40
2023-03-03T17:35:47.100Z,21.40
2023-03-03T17:38:22.236Z,16.37
2023-03-03T17:40:59.646Z,13.83
2023-03-03T17:43:38.199Z,20.13
2023-03-03T17:46:17.191Z,17.90
2023-03-03T17:49:09.422Z,27.33
2023-03-03T17:52:02.572Z,16.93
2023-03-03T17:54:54.438Z,15.90
2023-03-03T17:57:37.044Z,16.20
2023-03-03T18:00:20.785Z,19.30
2023-03-03T18:03:17.776Z,19.93
2023-03-03T18:06:20.578Z,17.00
2023-03-03T18:09:13.259Z,20.70
2023-03-03T18:11:55.527Z,18.87
2023-03-03T18:14:52.806Z,14.27
2023-03-03T18:17:44.433Z,15.93
2023-03-03T18:21:03.783Z,19.33
2023-03-03T18:23:39.980Z,15.97
2023-03-03T18:26:37.934Z,17.77
2023-03-03T18:29:21.936Z,18.90
2023-03-03T18:32:20.029Z,19.47
2023-03-03T18:34:52.798Z,19.03
2023-03-03T18:37:46.688Z,24.27
2023-03-03T18:40:33.527Z,17.47
2023-03-03T18:43:40.972Z,23.63
2023-03-03T18:46:13.052Z,24.63
2023-03-03T18:48:51.030Z,26.80
2023-03-03T18:51:53.755Z,26.33
2023-03-03T18:54:30.986Z,31.67
2023-03-03T18:57:17.884Z,23.40
2023-03-03T19:00:16.133Z,27.50
2023-03-03T19:02:54.689Z,15.63
2023-03-03T19:05:24.816Z,19.60
2023-03-03T19:08:05.463Z,14.53
2023-03-03T19:10:53.175Z,17.80
2023-03-03T19:13:44.426Z,12.57
2023-03-03T19:16:13.458Z,19.30
2023-03-03T19:19:15.529Z,26.17
2023-03-03T19:21:45.177Z,17.63
2023-03-03T19:24:35.519Z,21.80
2023-03-03T19:27:31.199Z,16.40
2023-03-03T19:30:07.560Z,17.13
2023-03-03T19:32:50.332Z,24.50
2023-03-03T19:35:25.859Z,15.97
2023-03-03T19:38:00.523Z,20.13
2023-03-03T19:40:34.437Z,22.87
2023-03-03T19:43:11.653Z,22.33
2023-03-03T19:45:55.581Z,21.33
2023-03-03T19:48:29.159Z,31.40
2023-03-03T19:51:03.550Z,20.57
2023-03-03T19:53:36.737Z,24.53
2023-03-03T19:56:20.105Z,20.23
2023-03-03T19:59:13.993Z,27.03
2023-03-03T20:01:52.322Z,18.87
2023-03-03T20:04:35.809Z,18.73
2023-03-03T20:07:15.994Z,21.03
2023-03-03T20:09:52.695Z,18.97
2023-03-03T20:12:40.167Z,19.00
2023-03-03T20:15:12.585Z,22.83
2023-03-03T20:17:55.733Z,24.67
2023-03-03T20:21:06.324Z,22.47
2023-03-03T20:23:41.899Z,20.77
2023-03-03T20:26:17.360Z,20.07
2023-03-03T20:29:04.948Z,21.87
2023-03-03T20:31:37.677Z,18.40
2023-03-03T20:34:15.403Z,17.00
2023-03-03T20:36:53.888Z,21.53
2023-03-03T20:39:35.939Z,19.33
2023-03-03T20:42:11.009Z,21.63
2023-03-03T20:44:53.917Z,21.47
2023-03-03T20:47:30.314Z,17.57
2023-03-03T20:50:15.663Z,19.33
2023-03-03T20:52:54.419Z,18.00
2023-03-03T20:55:28.597Z,18.87
2023-03-03T20:58:05.734Z,18.93
2023-03-03T21:00:40.793Z,26.17
2023-03-03T21:03:15.011Z,27.37
2023-03-03T21:05:58.254Z,26.70
2023-03-03T21:08:45.351Z,21.10
2023-03-03T21:11:17.731Z,16.77
2023-03-03T21:13:47.662Z,24.70
2023-03-03T21:16:33.488Z,18.83
2023-03-03T21:19:03.489Z,17.40
2023-03-03T21:21:33.532Z,20.77
2023-03-03T21:24:02.290Z,19.33
2023-03-03T21:26:54.272Z,17.80
2023-03-03T21:29:27.943Z,15.57
2023-03-03T21:31:59.491Z,19.47
2023-03-03T21:34:34.879Z,23.30
2023-03-03T21:37:04.745Z,17.20
2023-03-03T21:39:37.594Z,26.80
2023-03-03T21:42:08.101Z,23.80
2023-03-03T21:44:42.112Z,17.40
2023-03-03T21:47:14.410Z,16.17
2023-03-03T21:49:46.482Z,17.43
2023-03-03T21:52:17.880Z,18.73
2023-03-03T21:54:46.503Z,18.37
2023-03-03T21:57:32.735Z,17.47
2023-03-03T22:00:01.732Z,25.87
2023-03-03T22:02:32.310Z,15.27
2023-03-03T22:05:02.638Z,17.60
2023-03-03T22:07:31.600Z,20.90
2023-03-03T22:10:03.365Z,15.13
2023-03-03T22:12:32.112Z,20.83
2023-03-03T22:15:01.068Z,22.77
2023-03-03T22:17:29.902Z,20.27
2023-03-03T22:19:59.967Z,22.30
2023-03-03T22:22:28.703Z,20.73
2023-03-03T22:24:57.415Z,19.80
2023-03-03T22:27:26.246Z,19.97
2023-03-03T22:29:54.972Z,22.67
2023-03-03T22:32:23.586Z,20.40
2023-03-03T22:34:52.254Z,16.60
2023-03-03T22:37:24.248Z,24.33
2023-03-03T22:39:55.196Z,18.93
2023-03-03T22:42:25.206Z,22.53
2023-03-03T22:44:53.625Z,17.70
2023-03-03T22:47:22.572Z,17.37
2023-03-03T22:49:51.263Z,19.20
2023-03-03T22:52:21.337Z,20.70
2023-03-03T22:54:50.009Z,17.67
2023-03-03T22:57:18.487Z,19.00
2023-03-03T22:59:47.056Z,18.70
2023-03-03T23:02:15.896Z,18.03
2023-03-03T23:04:44.812Z,18.77
2023-03-03T23:07:13.542Z,16.13
2023-03-03T23:09:43.517Z,22.27
2023-03-03T23:12:12.218Z,12.83
2023-03-03T23:14:44.122Z,16.43
2023-03-03T23:17:15.533Z,16.87
2023-03-03T23:19:44.328Z,24.83
2023-03-03T23:22:13.819Z,20.57
2023-03-03T23:24:46.460Z,17.47
2023-03-03T23:27:14.985Z,17.97
2023-03-03T23:29:43.351Z,19.47
2023-03-03T23:32:11.830Z,20.70
2023-03-03T23:34:40.397Z,19.83
2023-03-03T23:37:08.775Z,16.60
2023-03-03T23:39:37.219Z,20.50
2023-03-03T23:42:09.566Z,18.20
2023-03-03T23:44:38.347Z,17.60
2023-03-03T23:47:07.243Z,18.23
2023-03-03T23:49:36.278Z,18.30
2023-03-03T23:52:05.394Z,19.47
2023-03-03T23:54:36.414Z,19.77
2023-03-03T23:57:08.350Z,17.17
2023-03-03T23:59:37.198Z,17.87
